createdAt,value
2018-08-09T00:01:24.164Z,22.01
2018-08-09T00:03:54.774Z,22.10
2018-08-09T00:06:25.155Z,22.01
2018-08-09T00:08:55.277Z,22.00
2018-08-09T00:13:09.525Z,21.98
2018-08-09T00:15:39.678Z,21.86
2018-08-09T00:18:10.142Z,21.83
2018-08-09T00:20:40.467Z,21.76
2018-08-09T00:23:12.942Z,21.76
2018-08-09T00:26:24.449Z,21.77
2018-08-09T00:28:55.174Z,21.76
2018-08-09T00:31:34.381Z,21.79
2018-08-09T00:34:21.479Z,21.78
2018-08-09T00:37:03.909Z,21.73
2018-08-09T00:42:38.278Z,21.89
2018-08-09T00:45:09.494Z,21.85
2018-08-09T00:47:40.993Z,21.78
2018-08-09T00:50:11.656Z,21.77
2018-08-09T00:52:41.804Z,21.70
2018-08-09T00:55:12.463Z,21.70
2018-08-09T00:57:43.171Z,21.67
2018-08-09T01:00:32.667Z,21.70
2018-08-09T01:03:03.071Z,21.77
2018-08-09T01:05:33.463Z,21.78
2018-08-09T01:08:03.846Z,21.77
2018-08-09T01:10:36.300Z,21.74
2018-08-09T01:13:06.830Z,21.66
2018-08-09T01:15:40.543Z,21.58
2018-08-09T01:18:11.543Z,21.57
2018-08-09T01:20:42.013Z,21.55
2018-08-09T01:23:13.651Z,21.60
2018-08-09T01:25:48.126Z,21.56
2018-08-09T01:28:18.440Z,21.65
2018-08-09T01:30:54.080Z,21.54
2018-08-09T01:33:24.779Z,21.47
2018-08-09T01:35:55.737Z,21.47
2018-08-09T01:38:31.073Z,21.48
2018-08-09T01:41:02.009Z,21.46
2018-08-09T01:43:42.988Z,21.45
2018-08-09T01:46:13.494Z,21.49
2018-08-09T01:48:47.006Z,21.48
2018-08-09T01:51:18.008Z,21.51
2018-08-09T01:53:49.032Z,21.50
2018-08-09T01:56:20.321Z,21.51
2018-08-09T01:58:51.752Z,21.52
2018-08-09T02:01:22.412Z,21.49
2018-08-09T02:04:36.884Z,21.47
2018-08-09T02:07:06.961Z,21.46
2018-08-09T02:09:38.168Z,21.47
2018-08-09T02:12:09.631Z,21.48
2018-08-09T02:14:40.005Z,21.51
2018-08-09T02:17:09.994Z,21.54
2018-08-09T02:19:40.753Z,21.60
2018-08-09T02:22:10.971Z,21.49
2018-08-09T02:24:41.331Z,21.40
2018-08-09T02:27:12.828Z,21.39
2018-08-09T02:30:12.206Z,21.34
2018-08-09T02:32:46.559Z,21.27
2018-08-09T02:35:16.992Z,21.18
2018-08-09T02:38:40.180Z,21.15
2018-08-09T02:41:10.779Z,21.15
2018-08-09T02:46:44.802Z,21.06
2018-08-09T02:49:15.359Z,20.99
2018-08-09T02:51:45.776Z,20.93
2018-08-09T02:54:15.857Z,20.92
2018-08-09T02:57:06.473Z,20.83
2018-08-09T03:02:42.224Z,20.69
2018-08-09T03:05:18.964Z,20.66
2018-08-09T03:07:48.925Z,20.57
2018-08-09T03:10:19.262Z,20.53
2018-08-09T03:12:49.612Z,20.54
2018-08-09T03:15:36.124Z,20.53
2018-08-09T03:18:10.641Z,20.48
2018-08-09T03:20:42.325Z,20.43
2018-08-09T03:23:13.032Z,20.39
2018-08-09T03:26:01.379Z,20.31
2018-08-09T03:29:07.640Z,20.30
2018-08-09T03:31:37.870Z,20.26
2018-08-09T03:36:55.229Z,20.26
2018-08-09T03:39:25.611Z,20.24
2018-08-09T03:41:57.371Z,20.22
2018-08-09T03:44:27.387Z,20.25
2018-08-09T03:46:57.845Z,20.18
2018-08-09T03:49:55.938Z,20.07
2018-08-09T03:52:26.218Z,20.00
2018-08-09T03:54:57.695Z,19.98
2018-08-09T03:57:27.942Z,19.94
2018-08-09T03:59:58.066Z,19.93
2018-08-09T04:02:28.488Z,19.89
2018-08-09T04:04:58.498Z,19.94
2018-08-09T04:07:28.546Z,19.98
2018-08-09T04:10:01.120Z,20.00
2018-08-09T04:12:31.032Z,19.97
2018-08-09T04:15:01.946Z,19.99
2018-08-09T04:17:31.829Z,20.01
2018-08-09T04:20:03.015Z,20.01
2018-08-09T04:22:33.710Z,19.98
2018-08-09T04:25:04.241Z,20.04
2018-08-09T04:27:35.567Z,20.03
2018-08-09T04:30:10.506Z,20.10
2018-08-09T04:32:41.098Z,20.17
2018-08-09T04:35:11.596Z,20.23
2018-08-09T04:37:42.017Z,20.23
2018-08-09T04:40:12.536Z,20.20
2018-08-09T04:42:43.165Z,20.18
2018-08-09T04:45:13.542Z,20.27
2018-08-09T04:47:44.070Z,20.28
2018-08-09T04:53:12.404Z,20.35
2018-08-09T04:55:42.922Z,20.42
2018-08-09T05:02:17.346Z,20.41
2018-08-09T05:04:47.715Z,20.43
2018-08-09T05:07:25.519Z,20.47
2018-08-09T05:10:07.217Z,20.48
2018-08-09T05:12:40.604Z,20.51
2018-08-09T05:15:13.746Z,20.54
2018-08-09T05:17:49.348Z,20.61
2018-08-09T05:20:20.756Z,20.68
2018-08-09T05:22:53.291Z,20.73
2018-08-09T05:25:24.767Z,20.78
2018-08-09T05:27:54.999Z,20.88
2018-08-09T05:30:24.965Z,20.92
2018-08-09T05:32:55.596Z,21.01
2018-08-09T05:35:26.192Z,21.05
2018-08-09T05:37:56.241Z,21.14
2018-08-09T05:40:31.112Z,21.20
2018-08-09T05:43:01.509Z,21.28
2018-08-09T05:45:31.381Z,21.34
2018-08-09T05:48:02.252Z,21.40
2018-08-09T05:50:32.340Z,21.53
2018-08-09T05:53:02.733Z,21.60
2018-08-09T05:55:50.906Z,21.71
2018-08-09T05:58:21.509Z,21.76
2018-08-09T06:04:14.157Z,21.86
2018-08-09T06:06:45.767Z,21.82
2018-08-09T06:09:16.119Z,21.80
2018-08-09T06:11:45.983Z,21.85
2018-08-09T06:14:15.900Z,21.79
2018-08-09T06:16:45.860Z,21.85
2018-08-09T06:19:16.349Z,21.91
2018-08-09T06:21:46.334Z,21.96
2018-08-09T06:24:16.288Z,22.06
2018-08-09T06:26:46.267Z,22.18
2018-08-09T06:29:16.501Z,22.25
2018-08-09T06:31:46.542Z,22.34
2018-08-09T06:34:19.448Z,22.42
2018-08-09T06:36:49.471Z,22.59
2018-08-09T06:39:19.750Z,22.72
2018-08-09T06:41:50.120Z,22.86
2018-08-09T06:44:21.682Z,23.04
2018-08-09T06:46:51.672Z,23.25
2018-08-09T06:49:21.634Z,23.48
2018-08-09T06:51:52.336Z,23.69
2018-08-09T06:54:22.168Z,23.86
2018-08-09T06:56:52.452Z,24.00
2018-08-09T06:59:22.516Z,24.10
2018-08-09T07:01:52.736Z,24.23
2018-08-09T07:04:22.612Z,24.38
2018-08-09T07:06:52.905Z,24.51
2018-08-09T07:09:27.148Z,24.72
2018-08-09T07:11:57.140Z,24.98
2018-08-09T07:17:02.177Z,25.33
2018-08-09T07:19:32.764Z,25.44
2018-08-09T07:22:03.580Z,25.50
2018-08-09T07:24:33.411Z,25.64
2018-08-09T07:27:03.269Z,25.71
2018-08-09T07:29:33.212Z,25.81
2018-08-09T07:32:03.438Z,25.97
2018-08-09T07:34:33.685Z,26.17
2018-08-09T07:37:08.234Z,26.35
2018-08-09T07:39:38.974Z,26.42
2018-08-09T07:42:09.186Z,26.59
2018-08-09T07:44:39.625Z,26.77
2018-08-09T07:47:09.830Z,26.94
2018-08-09T07:49:39.571Z,27.03
2018-08-09T07:52:09.764Z,27.08
2018-08-09T07:54:40.050Z,27.07
2018-08-09T07:57:10.380Z,27.19
2018-08-09T07:59:40.186Z,27.30
2018-08-09T08:02:11.060Z,27.37
2018-08-09T08:07:21.263Z,27.44
2018-08-09T08:09:53.914Z,27.44
2018-08-09T08:12:24.331Z,27.54
2018-08-09T08:14:58.586Z,27.82
2018-08-09T08:17:31.573Z,28.02
2018-08-09T08:20:02.786Z,28.27
2018-08-09T08:22:33.478Z,28.78
2018-08-09T08:25:03.911Z,29.69
2018-08-09T08:27:33.924Z,30.53
2018-08-09T08:30:03.844Z,31.03
2018-08-09T08:32:34.467Z,31.23
2018-08-09T08:35:04.843Z,32.01
2018-08-09T08:37:35.043Z,31.70
2018-08-09T08:40:08.634Z,31.52
2018-08-09T08:42:39.225Z,31.96
2018-08-09T08:45:13.103Z,32.52
2018-08-09T08:47:44.526Z,33.34
2018-08-09T08:52:52.781Z,33.60
2018-08-09T08:55:23.008Z,33.82
2018-08-09T08:57:53.487Z,34.81
2018-08-09T09:14:25.181Z,35.29
2018-08-09T09:16:55.420Z,35.77
2018-08-09T09:22:50.831Z,36.49
2018-08-09T09:25:22.079Z,37.09
2018-08-09T09:27:53.631Z,37.47
2018-08-09T09:30:23.688Z,38.21
2018-08-09T09:32:57.806Z,38.21
2018-08-09T09:35:36.221Z,37.23
2018-08-09T09:40:53.036Z,36.64
2018-08-09T09:43:23.552Z,36.72
2018-08-09T09:46:03.477Z,36.06
2018-08-09T09:48:40.678Z,37.34
2018-08-09T09:51:12.870Z,37.89
2018-08-09T09:53:46.500Z,37.85
2018-08-09T09:56:24.220Z,37.93
2018-08-09T10:04:30.055Z,37.80
2018-08-09T10:07:01.745Z,38.52
2018-08-09T10:09:39.494Z,36.94
2018-08-09T10:12:10.543Z,37.01
2018-08-09T10:14:42.390Z,37.54
2018-08-09T10:17:13.486Z,36.89
2018-08-09T10:19:45.083Z,36.98
2018-08-09T10:22:16.754Z,37.02
2018-08-09T10:24:49.352Z,36.81
2018-08-09T10:27:20.075Z,36.53
2018-08-09T10:29:51.617Z,35.18
2018-08-09T10:32:23.186Z,34.95
2018-08-09T10:34:54.530Z,34.65
2018-08-09T10:37:26.938Z,33.80
2018-08-09T10:40:00.152Z,34.13
2018-08-09T10:42:30.961Z,33.90
2018-08-09T10:45:02.889Z,33.54
2018-08-09T10:47:34.784Z,33.52
2018-08-09T10:50:05.742Z,33.33
2018-08-09T10:52:38.682Z,33.22
2018-08-09T10:55:10.583Z,32.83
2018-08-09T10:57:41.457Z,32.71
2018-08-09T11:00:14.856Z,32.76
2018-08-09T11:02:45.106Z,33.24
2018-08-09T11:05:16.275Z,33.63
2018-08-09T11:07:47.232Z,33.60
2018-08-09T11:10:17.818Z,33.37
2018-08-09T11:12:48.940Z,33.48
2018-08-09T11:15:25.430Z,33.26
2018-08-09T11:18:03.713Z,33.21
2018-08-09T11:20:52.231Z,33.14
2018-08-09T11:29:11.751Z,33.34
2018-08-09T11:31:52.124Z,33.32
2018-08-09T11:34:28.778Z,33.04
2018-08-09T11:37:08.173Z,32.87
2018-08-09T11:39:44.749Z,33.07
2018-08-09T12:08:16.972Z,33.55
2018-08-09T12:13:44.090Z,33.70
2018-08-09T12:16:25.516Z,33.92
2018-08-09T12:22:15.976Z,34.14
2018-08-09T12:24:50.864Z,34.13
2018-08-09T12:33:43.766Z,33.71
2018-08-09T12:39:38.581Z,33.79
2018-08-09T12:42:11.359Z,34.00
2018-08-09T12:45:10.832Z,34.00
2018-08-09T13:08:48.201Z,35.22
2018-08-09T13:14:45.943Z,35.12
2018-08-09T13:20:39.253Z,35.80
2018-08-09T13:23:14.276Z,36.51
2018-08-09T13:25:54.307Z,35.92
2018-08-09T13:31:18.891Z,32.57
2018-08-09T13:33:51.757Z,30.91
2018-08-09T13:36:27.548Z,28.83
2018-08-09T13:39:05.867Z,28.06
2018-08-09T13:41:40.242Z,27.59
2018-08-09T13:44:14.268Z,27.13
2018-08-09T13:46:44.806Z,25.71
2018-08-09T13:49:20.635Z,24.84
2018-08-09T13:51:55.965Z,23.99
2018-08-09T13:54:28.853Z,23.45
2018-08-09T13:57:04.265Z,23.13
2018-08-09T13:59:34.425Z,22.95
2018-08-09T14:02:06.686Z,22.96
2018-08-09T14:04:37.214Z,23.01
2018-08-09T14:07:08.255Z,22.99
2018-08-09T14:09:38.068Z,23.00
2018-08-09T14:12:10.014Z,23.03
2018-08-09T14:14:40.443Z,23.16
2018-08-09T14:17:10.410Z,23.21
2018-08-09T14:19:41.232Z,23.28
2018-08-09T14:22:11.580Z,23.43
2018-08-09T14:24:41.400Z,24.73
2018-08-09T14:27:11.162Z,25.19
2018-08-09T14:29:49.251Z,25.70
2018-08-09T14:32:22.451Z,26.98
2018-08-09T14:34:56.127Z,26.18
2018-08-09T14:37:27.795Z,26.25
2018-08-09T14:39:58.619Z,25.09
2018-08-09T14:42:30.108Z,24.85
2018-08-09T14:45:00.208Z,24.79
2018-08-09T14:47:32.697Z,25.64
2018-08-09T14:50:11.653Z,25.84
2018-08-09T14:52:46.551Z,25.79
2018-08-09T14:57:06.321Z,25.61
2018-08-09T14:59:56.500Z,25.58
2018-08-09T15:05:32.257Z,25.45
2018-08-09T15:08:06.477Z,25.42
2018-08-09T15:10:39.398Z,25.34
2018-08-09T15:13:09.925Z,25.36
2018-08-09T15:15:40.275Z,25.44
2018-08-09T15:18:11.120Z,25.37
2018-08-09T15:20:42.337Z,25.40
2018-08-09T15:23:15.905Z,25.33
2018-08-09T15:25:45.997Z,25.18
2018-08-09T15:28:16.640Z,25.20
2018-08-09T15:30:46.719Z,25.21
2018-08-09T15:33:18.199Z,25.34
2018-08-09T15:35:49.112Z,25.36
2018-08-09T15:38:19.766Z,25.37
2018-08-09T15:40:51.408Z,25.26
2018-08-09T15:43:21.355Z,25.29
2018-08-09T15:45:51.680Z,25.40
2018-08-09T15:48:38.418Z,25.74
2018-08-09T15:54:02.741Z,29.77
2018-08-09T15:56:38.682Z,31.33
2018-08-09T15:59:36.563Z,30.70
2018-08-09T16:02:09.300Z,30.30
2018-08-09T16:04:43.490Z,31.32
2018-08-09T16:07:16.523Z,32.08
2018-08-09T16:15:45.785Z,28.46
2018-08-09T16:18:17.524Z,28.10
2018-08-09T16:20:53.324Z,27.63
2018-08-09T16:23:24.185Z,27.47
2018-08-09T16:25:56.096Z,27.35
2018-08-09T16:28:27.132Z,26.93
2018-08-09T16:30:57.641Z,26.95
2018-08-09T16:33:30.363Z,26.87
2018-08-09T16:36:01.643Z,26.79
2018-08-09T16:38:32.078Z,26.66
2018-08-09T16:41:05.478Z,26.63
2018-08-09T16:46:58.150Z,26.43
2018-08-09T16:49:29.203Z,26.41
2018-08-09T17:13:19.287Z,25.84
2018-08-09T17:15:53.433Z,25.79
2018-08-09T17:18:24.343Z,25.76
2018-08-09T17:20:56.304Z,25.71
2018-08-09T17:23:27.710Z,25.50
2018-08-09T17:26:00.296Z,25.26
2018-08-09T17:28:30.650Z,24.87
2018-08-09T17:31:02.336Z,24.60
2018-08-09T17:33:33.327Z,24.51
2018-08-09T17:36:14.698Z,24.38
2018-08-09T17:38:45.462Z,23.93
2018-08-09T17:41:16.252Z,23.25
2018-08-09T17:43:50.724Z,22.54
2018-08-09T17:46:20.856Z,22.15
2018-08-09T17:48:51.286Z,21.94
2018-08-09T17:51:25.423Z,21.62
2018-08-09T17:54:00.796Z,21.42
2018-08-09T17:56:30.908Z,21.09
2018-08-09T17:59:03.006Z,20.97
2018-08-09T18:01:33.122Z,20.86
2018-08-09T18:04:03.588Z,20.74
2018-08-09T18:06:33.697Z,20.72
2018-08-09T18:09:04.341Z,20.67
2018-08-09T18:11:37.045Z,20.61
2018-08-09T18:14:07.474Z,20.52
2018-08-09T18:16:39.551Z,20.49
2018-08-09T18:19:10.414Z,20.37
2018-08-09T18:21:49.809Z,20.28
2018-08-09T18:24:20.968Z,20.23
2018-08-09T18:26:53.417Z,20.26
2018-08-09T18:29:24.031Z,20.27
2018-08-09T18:31:54.934Z,20.26
2018-08-09T18:34:27.381Z,20.19
2018-08-09T18:37:06.590Z,20.25
2018-08-09T18:42:44.614Z,20.38
2018-08-09T18:45:17.089Z,20.46
2018-08-09T18:47:54.017Z,20.48
2018-08-09T18:50:34.722Z,20.46
2018-08-09T18:58:46.805Z,20.43
2018-08-09T19:01:19.747Z,20.37
2018-08-09T19:03:53.448Z,20.48
2018-08-09T19:06:29.299Z,20.74
2018-08-09T19:09:09.846Z,20.78
2018-08-09T19:11:44.227Z,21.02
2018-08-09T19:14:17.896Z,21.13
2018-08-09T19:16:50.380Z,20.95
2018-08-09T19:19:34.100Z,20.76
2018-08-09T19:22:07.491Z,20.68
2018-08-09T19:24:46.939Z,20.57
2018-08-09T19:27:25.808Z,20.46
2018-08-09T19:30:02.384Z,20.42
2018-08-09T19:35:19.816Z,20.23
2018-08-09T19:40:35.184Z,20.23
2018-08-09T19:43:13.042Z,20.23
2018-08-09T19:45:45.836Z,20.22
2018-08-09T19:48:23.448Z,20.28
2018-08-09T19:53:35.725Z,20.49
2018-08-09T19:56:14.837Z,20.57
2018-08-09T19:58:49.359Z,20.63
2018-08-09T20:01:22.420Z,20.69
2018-08-09T20:04:00.012Z,20.65
2018-08-09T20:06:33.156Z,20.72
2018-08-09T20:09:06.423Z,20.76
2018-08-09T20:11:43.630Z,20.79
2018-08-09T20:14:16.377Z,20.69
2018-08-09T20:16:53.575Z,20.60
2018-08-09T20:19:28.526Z,20.47
2018-08-09T20:24:43.155Z,20.32
2018-08-09T20:27:18.825Z,20.28
2018-08-09T20:29:52.463Z,20.21
2018-08-09T20:32:25.526Z,20.33
2018-08-09T20:35:01.718Z,20.34
2018-08-09T20:37:33.426Z,20.27
2018-08-09T20:40:06.351Z,20.22
2018-08-09T20:42:37.946Z,20.27
2018-08-09T20:45:12.951Z,20.25
2018-08-09T20:47:59.677Z,20.21
2018-08-09T20:50:30.662Z,20.25
2018-08-09T20:53:01.490Z,20.23
2018-08-09T20:55:36.539Z,20.27
2018-08-09T20:58:08.812Z,20.29
2018-08-09T21:00:42.089Z,20.35
2018-08-09T21:03:13.965Z,20.29
2018-08-09T21:08:46.583Z,20.25
2018-08-09T21:11:18.755Z,20.29
2018-08-09T21:13:50.447Z,20.31
2018-08-09T21:16:22.145Z,20.25
2018-08-09T21:20:08.866Z,20.28
2018-08-09T21:22:39.150Z,20.16
2018-08-09T21:25:10.050Z,20.10
2018-08-09T21:28:58.072Z,20.16
2018-08-09T21:31:27.921Z,20.15
2018-08-09T21:33:59.355Z,20.18
2018-08-09T21:36:30.254Z,20.05
2018-08-09T21:39:01.350Z,20.04
2018-08-09T21:41:31.401Z,20.04
2018-08-09T21:44:02.744Z,19.97
2018-08-09T21:46:33.194Z,19.90
2018-08-09T21:49:04.266Z,19.84
2018-08-09T21:51:34.844Z,19.88
2018-08-09T21:54:06.555Z,19.94
2018-08-09T21:56:37.747Z,19.98
2018-08-09T21:59:08.519Z,19.95
2018-08-09T22:13:41.036Z,19.90
2018-08-09T22:16:17.751Z,19.86
2018-08-09T22:18:53.496Z,19.86
2018-08-09T22:23:33.024Z,19.79
2018-08-09T22:26:09.209Z,19.72
2018-08-09T22:28:39.464Z,19.70
2018-08-09T22:31:15.361Z,19.70
2018-08-09T22:33:47.009Z,19.67
2018-08-09T22:36:19.984Z,19.54
2018-08-09T22:38:54.761Z,19.50
2018-08-09T22:41:39.317Z,19.53
2018-08-09T22:44:14.090Z,19.51
2018-08-09T22:53:33.590Z,19.47
2018-08-09T22:56:04.700Z,19.47
2018-08-09T23:02:28.333Z,19.37
2018-08-09T23:05:05.937Z,19.31
2018-08-09T23:07:39.033Z,19.30
2018-08-09T23:10:13.222Z,19.31
2018-08-09T23:12:56.264Z,19.24
2018-08-09T23:15:26.903Z,19.26
2018-08-09T23:17:59.694Z,19.34
2018-08-09T23:20:42.141Z,19.49
2018-08-09T23:23:15.150Z,19.65
2018-08-09T23:25:46.879Z,19.72
2018-08-09T23:31:03.881Z,19.90
2018-08-09T23:33:36.371Z,19.96
2018-08-09T23:36:13.124Z,20.07
2018-08-09T23:39:10.445Z,20.16
2018-08-09T23:41:46.020Z,20.20
2018-08-09T23:44:26.606Z,20.23
2018-08-09T23:47:11.301Z,20.24
2018-08-09T23:49:43.544Z,20.29
2018-08-09T23:52:14.189Z,20.29
2018-08-09T23:54:46.514Z,20.31
2018-08-09T23:57:16.277Z,20.29
2018-08-09T23:59:46.010Z,20.29
